createdAt,value
2022-10-04T00:01:13.502Z,99788.75
2022-10-04T00:03:44.983Z,99784.62
2022-10-04T00:06:21.183Z,99786.84
2022-10-04T00:09:04.947Z,99785.25
2022-10-04T00:11:36.493Z,99785.13
2022-10-04T00:14:10.120Z,99788.84
2022-10-04T00:16:39.687Z,99794.97
2022-10-04T00:19:19.904Z,99796.00
2022-10-04T00:21:53.457Z,99802.94
2022-10-04T00:24:23.190Z,99788.03
2022-10-04T00:26:50.730Z,99786.78
2022-10-04T00:29:33.633Z,99776.53
2022-10-04T00:32:10.432Z,99781.41
2022-10-04T00:34:53.934Z,99781.34
2022-10-04T00:37:24.016Z,99766.91
2022-10-04T00:40:05.779Z,99772.91
2022-10-04T00:43:13.007Z,99776.50
2022-10-04T00:45:46.324Z,99773.63
2022-10-04T00:48:50.175Z,99775.28
2022-10-04T00:51:31.471Z,99765.75
2022-10-04T00:54:09.259Z,99774.44
2022-10-04T00:56:55.374Z,99781.19
2022-10-04T00:59:38.200Z,99782.06
2022-10-04T01:02:38.746Z,99776.97
2022-10-04T01:05:19.743Z,99780.87
2022-10-04T01:07:55.423Z,99774.50
2022-10-04T01:10:28.367Z,99783.28
2022-10-04T01:12:55.947Z,99783.47
2022-10-04T01:15:44.577Z,99781.69
2022-10-04T01:18:27.763Z,99776.56
2022-10-04T01:21:18.573Z,99779.91
2022-10-04T01:23:48.106Z,99778.09
2022-10-04T01:26:28.216Z,99785.84
2022-10-04T01:28:57.124Z,99780.84
2022-10-04T01:31:29.956Z,99781.13
2022-10-04T01:33:57.920Z,99772.34
2022-10-04T01:36:26.187Z,99780.72
2022-10-04T01:38:54.360Z,99779.75
2022-10-04T01:41:41.084Z,99776.06
2022-10-04T01:44:17.977Z,99779.59
2022-10-04T01:46:46.432Z,99765.84
2022-10-04T01:49:18.999Z,99771.41
2022-10-04T01:51:59.017Z,99773.16
2022-10-04T01:54:42.912Z,99764.53
2022-10-04T01:57:17.824Z,99772.69
2022-10-04T02:00:24.616Z,99767.38
2022-10-04T02:03:00.690Z,99770.47
2022-10-04T02:05:37.047Z,99774.53
2022-10-04T02:08:08.268Z,99770.25
2022-10-04T02:10:39.810Z,99763.59
2022-10-04T02:13:15.879Z,99750.50
2022-10-04T02:15:43.762Z,99757.31
2022-10-04T02:18:13.662Z,99758.16
2022-10-04T02:20:42.247Z,99759.75
2022-10-04T02:23:11.267Z,99759.19
2022-10-04T02:25:39.465Z,99761.66
2022-10-04T02:28:11.219Z,99765.06
2022-10-04T02:30:42.466Z,99760.78
2022-10-04T02:33:10.687Z,99770.31
2022-10-04T02:35:45.403Z,99773.91
2022-10-04T02:38:21.550Z,99770.44
2022-10-04T02:41:30.300Z,99768.91
2022-10-04T02:44:04.245Z,99767.53
2022-10-04T02:46:55.122Z,99765.69
2022-10-04T02:49:29.738Z,99767.81
2022-10-04T02:52:06.475Z,99760.91
2022-10-04T02:54:42.579Z,99752.13
2022-10-04T02:57:17.781Z,99755.81
2022-10-04T02:59:47.498Z,99753.47
2022-10-04T03:02:41.022Z,99762.88
2022-10-04T03:05:12.376Z,99762.31
2022-10-04T03:07:40.234Z,99753.44
2022-10-04T03:10:12.366Z,99760.84
2022-10-04T03:12:40.920Z,99759.59
2022-10-04T03:15:12.199Z,99767.28
2022-10-04T03:17:41.816Z,99764.47
2022-10-04T03:20:11.100Z,99763.22
2022-10-04T03:22:41.631Z,99754.50
2022-10-04T03:25:18.876Z,99761.06
2022-10-04T03:27:46.793Z,99753.03
2022-10-04T03:30:22.784Z,99760.94
2022-10-04T03:32:50.604Z,99763.44
2022-10-04T03:35:34.246Z,99762.25
2022-10-04T03:38:05.424Z,99762.25
2022-10-04T03:40:33.773Z,99762.66
2022-10-04T03:43:02.530Z,99762.03
2022-10-04T03:45:32.009Z,99760.72
2022-10-04T03:48:05.677Z,99762.72
2022-10-04T03:50:38.027Z,99761.50
2022-10-04T03:53:09.687Z,99767.50
2022-10-04T03:55:38.051Z,99759.50
2022-10-04T03:58:05.985Z,99772.34
2022-10-04T04:00:37.761Z,99771.16
2022-10-04T04:03:07.555Z,99778.63
2022-10-04T04:05:43.251Z,99776.88
2022-10-04T04:08:36.482Z,99773.03
2022-10-04T04:11:05.459Z,99778.13
2022-10-04T04:13:52.292Z,99772.03
2022-10-04T04:16:21.012Z,99778.63
2022-10-04T04:18:50.219Z,99774.19
2022-10-04T04:21:19.170Z,99776.44
2022-10-04T04:23:59.011Z,99773.41
2022-10-04T04:26:38.127Z,99776.00
2022-10-04T04:29:08.993Z,99779.91
2022-10-04T04:31:56.429Z,99788.34
2022-10-04T04:34:26.989Z,99786.75
2022-10-04T04:36:58.610Z,99790.94
2022-10-04T04:39:26.560Z,99787.91
2022-10-04T04:41:54.709Z,99791.31
2022-10-04T04:44:23.169Z,99789.03
2022-10-04T04:46:51.806Z,99790.06
2022-10-04T04:49:19.458Z,99793.25
2022-10-04T04:51:50.401Z,99788.28
2022-10-04T04:54:20.360Z,99774.19
2022-10-04T04:56:51.378Z,99791.22
2022-10-04T04:59:20.989Z,99781.66
2022-10-04T05:01:49.116Z,99790.13
2022-10-04T05:04:22.889Z,99792.25
2022-10-04T05:07:05.687Z,99785.31
2022-10-04T05:09:38.076Z,99788.56
2022-10-04T05:12:08.956Z,99798.50
2022-10-04T05:14:44.101Z,99794.44
2022-10-04T05:17:19.249Z,99800.84
2022-10-04T05:19:47.245Z,99806.25
2022-10-04T05:22:19.386Z,99795.87
2022-10-04T05:24:48.969Z,99801.81
2022-10-04T05:27:25.808Z,99803.75
2022-10-04T05:30:09.196Z,99806.97
2022-10-04T05:33:02.279Z,99821.53
2022-10-04T05:35:41.739Z,99827.38
2022-10-04T05:38:19.578Z,99824.03
2022-10-04T05:41:03.531Z,99825.47
2022-10-04T05:43:49.186Z,99832.19
2022-10-04T05:46:19.925Z,99840.25
2022-10-04T05:48:52.866Z,99832.34
2022-10-04T05:51:34.389Z,99843.25
2022-10-04T05:54:15.297Z,99842.38
2022-10-04T05:56:52.584Z,99847.84
2022-10-04T05:59:35.899Z,99851.66
2022-10-04T06:02:15.641Z,99856.91
2022-10-04T06:04:58.888Z,99855.81
2022-10-04T06:07:34.123Z,99863.81
2022-10-04T06:10:35.565Z,99856.75
2022-10-04T06:13:12.395Z,99860.09
2022-10-04T06:15:43.223Z,99863.59
2022-10-04T06:18:16.058Z,99866.06
2022-10-04T06:21:13.291Z,99865.63
2022-10-04T06:24:10.270Z,99865.00
2022-10-04T06:26:45.095Z,99866.94
2022-10-04T06:29:21.860Z,99877.31
2022-10-04T06:32:03.420Z,99873.41
2022-10-04T06:34:49.576Z,99865.91
2022-10-04T06:37:35.938Z,99867.47
2022-10-04T06:40:19.805Z,99872.53
2022-10-04T06:42:56.544Z,99878.84
2022-10-04T06:46:10.345Z,99880.91
2022-10-04T06:48:41.321Z,99882.28
2022-10-04T06:51:40.443Z,99890.41
2022-10-04T06:54:26.647Z,99897.75
2022-10-04T06:57:19.085Z,99894.66
2022-10-04T06:59:56.025Z,99892.50
2022-10-04T07:02:31.383Z,99895.37
2022-10-04T07:05:08.502Z,99907.75
2022-10-04T07:07:38.832Z,99913.09
2022-10-04T07:10:30.716Z,99911.75
2022-10-04T07:13:04.251Z,99919.00
2022-10-04T07:15:36.641Z,99920.00
2022-10-04T07:18:08.741Z,99919.94
2022-10-04T07:20:36.703Z,99916.28
2022-10-04T07:23:44.192Z,99924.06
2022-10-04T07:26:22.490Z,99927.88
2022-10-04T07:28:50.581Z,99923.47
2022-10-04T07:31:30.064Z,99918.59
2022-10-04T07:34:10.735Z,99909.97
2022-10-04T07:36:53.484Z,99908.91
2022-10-04T07:39:53.754Z,99917.28
2022-10-04T07:42:46.386Z,99919.41
2022-10-04T07:45:13.963Z,99899.25
2022-10-04T07:47:41.937Z,99894.22
2022-10-04T07:50:24.583Z,99895.53
2022-10-04T07:52:57.603Z,99895.06
2022-10-04T07:55:41.602Z,99902.16
2022-10-04T07:58:33.195Z,99909.84
2022-10-04T08:01:04.438Z,99904.94
2022-10-04T08:03:57.546Z,99913.09
2022-10-04T08:06:52.626Z,99914.34
2022-10-04T08:09:32.718Z,99901.22
2022-10-04T08:12:15.449Z,99906.88
2022-10-04T08:15:14.180Z,99908.81
2022-10-04T08:17:57.295Z,99908.59
2022-10-04T08:20:57.018Z,99913.31
2022-10-04T08:26:31.905Z,99914.19
2022-10-04T08:29:13.497Z,99913.28
2022-10-04T08:31:56.738Z,99919.94
2022-10-04T08:34:36.564Z,99932.00
2022-10-04T08:37:58.138Z,99931.41
2022-10-04T08:40:53.186Z,99945.63
2022-10-04T08:43:39.913Z,99948.63
2022-10-04T08:46:29.141Z,99954.66
2022-10-04T08:49:18.134Z,99950.28
2022-10-04T08:51:54.760Z,99947.87
2022-10-04T08:54:43.971Z,99956.66
2022-10-04T08:57:15.941Z,99956.84
2022-10-04T09:00:19.599Z,99961.53
2022-10-04T09:03:05.489Z,99969.78
2022-10-04T09:05:59.362Z,99970.81
2022-10-04T09:08:29.805Z,99970.00
2022-10-04T09:11:22.154Z,99969.25
2022-10-04T09:13:55.485Z,99965.75
2022-10-04T09:16:37.668Z,99962.91
2022-10-04T09:19:17.360Z,99958.13
2022-10-04T09:21:56.121Z,99954.06
2022-10-04T09:24:29.471Z,99955.47
2022-10-04T09:27:05.590Z,99961.16
2022-10-04T09:29:48.423Z,99956.34
2022-10-04T09:32:53.711Z,99964.59
2022-10-04T09:35:46.272Z,99952.78
2022-10-04T09:38:48.477Z,99963.31
2022-10-04T09:41:25.287Z,99959.00
2022-10-04T09:44:22.437Z,99963.31
2022-10-04T09:46:56.495Z,99958.69
2022-10-04T09:49:51.918Z,99963.94
2022-10-04T09:52:40.730Z,99961.06
2022-10-04T09:55:23.845Z,99958.91
2022-10-04T09:58:28.234Z,99967.78
2022-10-04T10:01:25.689Z,99971.44
2022-10-04T10:04:15.299Z,99977.09
2022-10-04T10:06:51.941Z,99984.59
2022-10-04T10:09:32.217Z,99971.94
2022-10-04T10:12:24.656Z,99971.53
2022-10-04T10:15:16.233Z,99973.56
2022-10-04T10:17:43.605Z,99963.16
2022-10-04T10:20:34.620Z,99965.59
2022-10-04T10:23:30.029Z,99967.56
2022-10-04T10:26:35.386Z,99971.75
2022-10-04T10:29:27.313Z,99961.81
2022-10-04T10:32:00.120Z,99968.50
2022-10-04T10:34:45.956Z,99972.72
2022-10-04T10:37:39.987Z,99982.19
2022-10-04T10:40:40.582Z,99977.59
2022-10-04T10:43:36.278Z,99974.53
2022-10-04T10:46:16.163Z,99975.63
2022-10-04T10:49:28.543Z,99972.78
2022-10-04T10:52:14.522Z,99972.72
2022-10-04T10:54:51.176Z,99977.84
2022-10-04T10:57:59.307Z,99979.09
2022-10-04T11:00:40.991Z,99972.72
2022-10-04T11:03:17.261Z,99979.44
2022-10-04T11:06:23.401Z,99984.28
2022-10-04T11:09:09.511Z,99983.72
2022-10-04T11:11:58.665Z,99998.09
2022-10-04T11:14:55.812Z,99995.91
2022-10-04T11:17:26.630Z,99999.50
2022-10-04T11:20:31.747Z,99996.28
2022-10-04T11:23:25.387Z,100006.37
2022-10-04T11:26:11.279Z,99998.16
2022-10-04T11:28:42.048Z,99998.97
2022-10-04T11:31:52.531Z,100001.56
2022-10-04T11:34:57.347Z,99991.72
2022-10-04T11:37:55.995Z,99991.97
2022-10-04T11:40:25.817Z,99993.44
2022-10-04T11:43:15.823Z,99989.59
2022-10-04T11:45:54.304Z,99991.50
2022-10-04T11:48:27.863Z,99997.19
2022-10-04T11:51:07.764Z,99991.97
2022-10-04T11:54:11.731Z,99986.50
2022-10-04T11:57:08.578Z,99986.94
2022-10-04T11:59:59.088Z,99987.19
2022-10-04T12:02:38.887Z,99989.47
2022-10-04T12:05:33.987Z,99994.63
2022-10-04T12:08:13.627Z,100000.88
2022-10-04T12:10:43.606Z,99997.97
2022-10-04T12:13:30.254Z,100000.75
2022-10-04T12:16:16.076Z,100005.66
2022-10-04T12:18:56.465Z,100006.81
2022-10-04T12:21:42.476Z,100002.69
2022-10-04T12:24:16.248Z,100001.66
2022-10-04T12:27:08.607Z,100001.53
2022-10-04T12:30:00.870Z,99996.34
2022-10-04T12:32:36.600Z,99993.19
2022-10-04T12:35:22.795Z,99989.25
2022-10-04T12:38:26.591Z,99991.50
2022-10-04T12:41:08.683Z,99986.81
2022-10-04T12:44:01.295Z,99995.69
2022-10-04T12:47:02.909Z,99993.25
2022-10-04T12:49:57.388Z,99992.81
2022-10-04T12:52:25.903Z,99993.06
2022-10-04T12:55:09.629Z,100001.56
2022-10-04T12:57:40.319Z,100002.53
2022-10-04T13:00:18.787Z,99998.63
2022-10-04T13:03:33.798Z,100001.41
2022-10-04T13:06:29.174Z,100001.28
2022-10-04T13:08:59.305Z,100002.22
2022-10-04T13:11:55.142Z,99998.00
2022-10-04T13:14:40.579Z,100000.09
2022-10-04T13:17:38.450Z,100008.28
2022-10-04T13:20:24.797Z,100006.72
2022-10-04T13:23:05.685Z,100004.31
2022-10-04T13:25:48.312Z,99999.50
2022-10-04T13:28:26.651Z,100004.28
2022-10-04T13:31:20.139Z,99997.12
2022-10-04T13:34:18.639Z,100006.31
2022-10-04T13:37:06.534Z,99999.69
2022-10-04T13:39:46.675Z,100005.25
2022-10-04T13:42:14.181Z,100013.09
2022-10-04T13:44:53.376Z,100004.72
2022-10-04T13:48:13.235Z,100008.94
2022-10-04T13:51:08.287Z,100014.06
2022-10-04T13:53:54.071Z,100014.66
2022-10-04T13:56:49.704Z,100010.16
2022-10-04T13:59:52.770Z,100010.28
2022-10-04T14:02:41.784Z,100020.19
2022-10-04T14:05:37.476Z,100027.25
2022-10-04T14:08:46.192Z,100028.38
2022-10-04T14:11:22.794Z,100023.31
2022-10-04T14:14:14.074Z,100023.53
2022-10-04T14:16:59.710Z,100019.91
2022-10-04T14:19:35.940Z,100027.16
2022-10-04T14:22:42.749Z,100031.88
2022-10-04T14:25:25.521Z,100028.38
2022-10-04T14:28:22.216Z,100030.59
2022-10-04T14:30:59.061Z,100033.81
2022-10-04T14:33:48.340Z,100032.88
2022-10-04T14:36:21.405Z,100030.41
2022-10-04T14:39:13.568Z,100033.13
2022-10-04T14:41:47.085Z,100035.28
2022-10-04T14:44:36.412Z,100036.25
2022-10-04T14:47:22.697Z,100043.66
2022-10-04T14:50:03.016Z,100043.13
2022-10-04T14:52:49.318Z,100041.84
2022-10-04T14:56:05.257Z,100047.44
2022-10-04T14:59:16.432Z,100049.94
2022-10-04T15:02:22.003Z,100055.69
2022-10-04T15:04:49.625Z,100057.75
2022-10-04T15:07:20.961Z,100061.31
2022-10-04T15:10:04.063Z,100058.69
2022-10-04T15:12:51.970Z,100060.31
2022-10-04T15:15:24.438Z,100073.22
2022-10-04T15:17:53.164Z,100071.69
2022-10-04T15:20:34.433Z,100077.56
2022-10-04T15:23:27.879Z,100067.25
2022-10-04T15:26:18.173Z,100063.41
2022-10-04T15:28:49.171Z,100068.69
2022-10-04T15:31:22.651Z,100068.06
2022-10-04T15:34:10.436Z,100078.19
2022-10-04T15:36:47.122Z,100087.44
2022-10-04T15:39:49.273Z,100086.31
2022-10-04T15:42:32.995Z,100093.19
2022-10-04T15:45:07.957Z,100090.66
2022-10-04T15:47:56.914Z,100095.72
2022-10-04T15:50:30.773Z,100098.47
2022-10-04T15:53:25.783Z,100096.31
2022-10-04T15:56:15.059Z,100098.69
2022-10-04T15:59:07.637Z,100104.75
2022-10-04T16:01:54.387Z,100115.28
2022-10-04T16:04:50.337Z,100112.56
2022-10-04T16:07:26.747Z,100108.75
2022-10-04T16:10:14.126Z,100118.87
2022-10-04T16:13:00.556Z,100119.97
2022-10-04T16:15:33.284Z,100123.47
2022-10-04T16:18:32.203Z,100126.94
2022-10-04T16:21:23.485Z,100130.91
2022-10-04T16:24:11.021Z,100131.97
2022-10-04T16:26:41.554Z,100133.19
2022-10-04T16:29:31.106Z,100141.16
2022-10-04T16:32:22.258Z,100139.34
2022-10-04T16:34:59.718Z,100137.66
2022-10-04T16:37:42.075Z,100149.34
2022-10-04T16:40:09.721Z,100139.97
2022-10-04T16:42:59.048Z,100149.81
2022-10-04T16:45:58.858Z,100156.44
2022-10-04T16:48:39.027Z,100152.59
2022-10-04T16:51:25.721Z,100159.28
2022-10-04T16:54:09.892Z,100158.53
2022-10-04T16:56:52.864Z,100165.84
2022-10-04T16:59:39.026Z,100167.69
2022-10-04T17:02:44.994Z,100169.00
2022-10-04T17:05:35.002Z,100171.44
2022-10-04T17:08:15.507Z,100175.03
2022-10-04T17:10:49.555Z,100174.12
2022-10-04T17:13:36.249Z,100180.97
2022-10-04T17:16:12.019Z,100189.03
2022-10-04T17:19:05.605Z,100188.25
2022-10-04T17:21:42.382Z,100198.47
2022-10-04T17:24:16.383Z,100197.97
2022-10-04T17:26:56.577Z,100201.16
2022-10-04T17:29:44.004Z,100197.28
2022-10-04T17:32:34.313Z,100203.91
2022-10-04T17:35:36.031Z,100213.59
2022-10-04T17:38:29.221Z,100203.63
2022-10-04T17:41:07.675Z,100207.50
2022-10-04T17:44:13.258Z,100208.06
2022-10-04T17:46:52.937Z,100203.72
2022-10-04T17:49:37.176Z,100208.78
2022-10-04T17:52:13.814Z,100205.72
2022-10-04T17:54:45.961Z,100213.06
2022-10-04T17:57:22.431Z,100217.44
2022-10-04T18:00:14.069Z,100214.66
2022-10-04T18:03:03.985Z,100215.78
2022-10-04T18:05:48.656Z,100222.03
2022-10-04T18:08:46.718Z,100225.00
2022-10-04T18:11:30.702Z,100222.19
2022-10-04T18:14:09.688Z,100227.72
2022-10-04T18:16:54.408Z,100230.91
2022-10-04T18:19:37.438Z,100232.00
2022-10-04T18:22:18.217Z,100230.53
2022-10-04T18:25:07.762Z,100230.41
2022-10-04T18:27:48.779Z,100233.66
2022-10-04T18:30:20.675Z,100237.19
2022-10-04T18:32:54.492Z,100235.34
2022-10-04T18:35:29.325Z,100241.50
2022-10-04T18:38:06.030Z,100237.00
2022-10-04T18:40:34.972Z,100242.38
2022-10-04T18:43:02.671Z,100250.00
2022-10-04T18:45:32.338Z,100245.72
2022-10-04T18:48:02.528Z,100255.22
2022-10-04T18:50:41.043Z,100245.31
2022-10-04T18:53:24.258Z,100250.91
2022-10-04T18:56:03.508Z,100255.91
2022-10-04T18:58:31.342Z,100255.09
2022-10-04T19:01:18.701Z,100269.47
2022-10-04T19:03:55.664Z,100269.78
2022-10-04T19:06:27.669Z,100276.75
2022-10-04T19:09:03.779Z,100271.75
2022-10-04T19:11:46.888Z,100277.44
2022-10-04T19:14:25.999Z,100273.12
2022-10-04T19:17:21.988Z,100275.81
2022-10-04T19:20:19.199Z,100275.69
2022-10-04T19:23:05.360Z,100276.19
2022-10-04T19:25:40.109Z,100287.03
2022-10-04T19:28:14.519Z,100290.47
2022-10-04T19:31:03.956Z,100291.53
2022-10-04T19:33:40.476Z,100283.97
2022-10-04T19:36:30.278Z,100297.28
2022-10-04T19:39:26.945Z,100298.47
2022-10-04T19:42:00.085Z,100296.38
2022-10-04T19:44:32.149Z,100302.56
2022-10-04T19:47:04.565Z,100308.88
2022-10-04T19:49:41.224Z,100320.84
2022-10-04T19:52:40.097Z,100309.91
2022-10-04T19:55:23.028Z,100311.34
2022-10-04T19:57:56.289Z,100312.22
2022-10-04T20:00:24.612Z,100314.94
2022-10-04T20:02:52.644Z,100314.19
2022-10-04T20:05:22.731Z,100322.50
2022-10-04T20:07:58.276Z,100317.41
2022-10-04T20:10:32.668Z,100324.47
2022-10-04T20:13:10.660Z,100330.31
2022-10-04T20:15:38.504Z,100337.62
2022-10-04T20:18:30.770Z,100334.12
2022-10-04T20:20:59.016Z,100331.19
2022-10-04T20:23:45.729Z,100336.13
2022-10-04T20:26:22.330Z,100339.94
2022-10-04T20:28:49.932Z,100341.34
2022-10-04T20:31:24.157Z,100340.88
2022-10-04T20:33:51.941Z,100341.78
2022-10-04T20:36:19.815Z,100344.25
2022-10-04T20:38:55.958Z,100341.03
2022-10-04T20:41:29.824Z,100344.59
2022-10-04T20:43:59.554Z,100350.44
2022-10-04T20:46:38.307Z,100349.63
2022-10-04T20:49:15.435Z,100353.94
2022-10-04T20:51:50.868Z,100357.75
2022-10-04T20:54:18.891Z,100353.13
2022-10-04T20:56:48.751Z,100358.50
2022-10-04T20:59:17.501Z,100362.00
2022-10-04T21:02:01.409Z,100365.56
2022-10-04T21:04:30.314Z,100369.06
2022-10-04T21:07:05.346Z,100358.84
2022-10-04T21:09:35.544Z,100363.16
2022-10-04T21:12:04.012Z,100365.53
2022-10-04T21:14:33.250Z,100368.56
2022-10-04T21:17:05.609Z,100369.09
2022-10-04T21:19:33.249Z,100372.03
2022-10-04T21:22:05.697Z,100365.13
2022-10-04T21:24:38.271Z,100369.37
2022-10-04T21:27:11.570Z,100367.25
2022-10-04T21:29:40.822Z,100374.25
2022-10-04T21:32:08.835Z,100376.91
2022-10-04T21:35:05.769Z,100377.22
2022-10-04T21:37:24.243Z,100373.97
2022-10-04T21:39:51.810Z,100375.34
2022-10-04T21:42:19.385Z,100375.63
2022-10-04T21:44:47.275Z,100381.84
2022-10-04T21:47:15.308Z,100379.41
2022-10-04T21:49:43.117Z,100386.53
2022-10-04T21:52:11.149Z,100388.69
2022-10-04T21:54:38.698Z,100387.09
2022-10-04T21:57:06.291Z,100383.09
2022-10-04T21:59:34.233Z,100386.03
2022-10-04T22:02:01.870Z,100397.78
2022-10-04T22:04:29.901Z,100398.09
2022-10-04T22:06:57.558Z,100406.44
2022-10-04T22:09:26.307Z,100408.56
2022-10-04T22:11:54.211Z,100411.22
2022-10-04T22:14:21.820Z,100410.19
2022-10-04T22:16:50.200Z,100407.00
2022-10-04T22:19:18.710Z,100408.59
2022-10-04T22:21:46.377Z,100409.16
2022-10-04T22:24:17.166Z,100415.84
2022-10-04T22:26:45.289Z,100413.16
2022-10-04T22:29:14.645Z,100413.16
2022-10-04T22:31:52.484Z,100418.25
2022-10-04T22:34:21.724Z,100414.50
2022-10-04T22:36:50.294Z,100426.28
2022-10-04T22:39:19.322Z,100428.41
2022-10-04T22:41:59.061Z,100420.06
2022-10-04T22:44:34.077Z,100428.16
2022-10-04T22:47:03.535Z,100425.97
2022-10-04T22:49:34.044Z,100418.47
2022-10-04T22:52:05.890Z,100426.31
2022-10-04T22:54:34.847Z,100426.53
2022-10-04T22:57:02.805Z,100427.03
2022-10-04T22:59:39.164Z,100427.03
2022-10-04T23:02:12.704Z,100434.00
2022-10-04T23:04:43.575Z,100430.19
2022-10-04T23:07:11.927Z,100432.31
2022-10-04T23:09:39.603Z,100433.66
2022-10-04T23:12:08.516Z,100431.84
2022-10-04T23:14:37.369Z,100441.22
2022-10-04T23:17:26.100Z,100443.87
2022-10-04T23:20:06.446Z,100446.50
2022-10-04T23:22:34.214Z,100443.56
2022-10-04T23:25:02.287Z,100448.66
2022-10-04T23:27:29.967Z,100451.03
2022-10-04T23:30:04.547Z,100446.69
2022-10-04T23:32:32.701Z,100450.22
2022-10-04T23:35:00.646Z,100452.91
2022-10-04T23:37:31.203Z,100462.28
2022-10-04T23:39:59.388Z,100461.41
2022-10-04T23:42:29.078Z,100466.22
2022-10-04T23:44:58.054Z,100464.88
2022-10-04T23:47:32.347Z,100463.19
2022-10-04T23:50:00.138Z,100467.41
2022-10-04T23:52:36.517Z,100467.47
2022-10-04T23:55:16.266Z,100469.50
2022-10-04T23:57:44.197Z,100477.53
